sensor_id;sensor_type;location;lat;lon;timestamp;temperature;humidity
51853;DHT22;37894;53.172;6.598;2023-08-08T00:02:21;13.00;99.90
51853;DHT22;37894;53.172;6.598;2023-08-08T00:04:48;13.50;99.90
51853;DHT22;37894;53.172;6.598;2023-08-08T00:09:41;12.60;99.90
51853;DHT22;37894;53.172;6.598;2023-08-08T00:12:07;13.40;99.90
51853;DHT22;37894;53.172;6.598;2023-08-08T00:14:32;13.50;99.90
51853;DHT22;37894;53.172;6.598;2023-08-08T00:16:58;12.60;99.90
51853;DHT22;37894;53.172;6.598;2023-08-08T00:19:24;13.00;99.90
51853;DHT22;37894;53.172;6.598;2023-08-08T00:21:49;13.10;99.90
51853;DHT22;37894;53.172;6.598;2023-08-08T00:24:15;13.20;99.90
51853;DHT22;37894;53.172;6.598;2023-08-08T00:26:41;13.70;99.90
51853;DHT22;37894;53.172;6.598;2023-08-08T00:31:32;12.90;99.90
51853;DHT22;37894;53.172;6.598;2023-08-08T00:33:58;13.30;99.90
51853;DHT22;37894;53.172;6.598;2023-08-08T00:36:24;13.30;99.90
51853;DHT22;37894;53.172;6.598;2023-08-08T00:38:49;13.40;99.90
51853;DHT22;37894;53.172;6.598;2023-08-08T00:41:15;12.50;99.90
51853;DHT22;37894;53.172;6.598;2023-08-08T00:43:41;13.20;99.90
51853;DHT22;37894;53.172;6.598;2023-08-08T00:46:09;12.70;99.90
51853;DHT22;37894;53.172;6.598;2023-08-08T00:48:34;13.20;99.90
51853;DHT22;37894;53.172;6.598;2023-08-08T00:51:00;13.20;99.90
51853;DHT22;37894;53.172;6.598;2023-08-08T00:53:27;12.80;99.90
51853;DHT22;37894;53.172;6.598;2023-08-08T00:55:56;12.80;99.90
51853;DHT22;37894;53.172;6.598;2023-08-08T00:58:23;12.30;99.90
51853;DHT22;37894;53.172;6.598;2023-08-08T01:00:49;12.60;99.90
51853;DHT22;37894;53.172;6.598;2023-08-08T01:03:15;13.90;99.90
51853;DHT22;37894;53.172;6.598;2023-08-08T01:05:51;13.10;99.90
51853;DHT22;37894;53.172;6.598;2023-08-08T01:08:22;13.00;99.90
51853;DHT22;37894;53.172;6.598;2023-08-08T01:10:49;13.00;99.90
51853;DHT22;37894;53.172;6.598;2023-08-08T01:13:19;12.50;99.90
51853;DHT22;37894;53.172;6.598;2023-08-08T01:15:46;13.10;99.90
51853;DHT22;37894;53.172;6.598;2023-08-08T01:18:14;12.40;99.90
51853;DHT22;37894;53.172;6.598;2023-08-08T01:20:42;13.00;99.90
51853;DHT22;37894;53.172;6.598;2023-08-08T01:25:57;12.30;99.90
51853;DHT22;37894;53.172;6.598;2023-08-08T01:28:23;12.60;99.90
51853;DHT22;37894;53.172;6.598;2023-08-08T01:30:50;12.70;99.90
51853;DHT22;37894;53.172;6.598;2023-08-08T01:33:16;12.80;99.90
51853;DHT22;37894;53.172;6.598;2023-08-08T01:35:45;12.10;99.90
51853;DHT22;37894;53.172;6.598;2023-08-08T01:38:17;12.50;99.90
51853;DHT22;37894;53.172;6.598;2023-08-08T01:40:45;12.60;99.90
51853;DHT22;37894;53.172;6.598;2023-08-08T01:43:13;12.50;99.90
51853;DHT22;37894;53.172;6.598;2023-08-08T01:45:40;12.20;99.90
51853;DHT22;37894;53.172;6.598;2023-08-08T01:48:11;12.50;99.90
51853;DHT22;37894;53.172;6.598;2023-08-08T01:50:37;12.90;99.90
51853;DHT22;37894;53.172;6.598;2023-08-08T01:53:03;12.20;99.90
51853;DHT22;37894;53.172;6.598;2023-08-08T01:55:30;12.70;99.90
51853;DHT22;37894;53.172;6.598;2023-08-08T01:57:56;12.90;99.90
51853;DHT22;37894;53.172;6.598;2023-08-08T02:00:21;12.30;99.90
51853;DHT22;37894;53.172;6.598;2023-08-08T02:02:47;12.70;99.90
51853;DHT22;37894;53.172;6.598;2023-08-08T02:05:13;12.60;99.90
51853;DHT22;37894;53.172;6.598;2023-08-08T02:10:05;12.60;99.90
51853;DHT22;37894;53.172;6.598;2023-08-08T02:12:31;13.10;99.90
51853;DHT22;37894;53.172;6.598;2023-08-08T02:14:57;12.70;99.90
51853;DHT22;37894;53.172;6.598;2023-08-08T02:17:23;12.90;99.90
51853;DHT22;37894;53.172;6.598;2023-08-08T02:19:49;13.60;99.90
51853;DHT22;37894;53.172;6.598;2023-08-08T02:24:40;12.70;99.90
51853;DHT22;37894;53.172;6.598;2023-08-08T02:27:06;12.60;99.90
51853;DHT22;37894;53.172;6.598;2023-08-08T02:29:32;13.60;99.90
51853;DHT22;37894;53.172;6.598;2023-08-08T02:31:57;12.40;99.90
51853;DHT22;37894;53.172;6.598;2023-08-08T02:34:23;11.80;99.90
51853;DHT22;37894;53.172;6.598;2023-08-08T02:36:49;13.00;99.90
51853;DHT22;37894;53.172;6.598;2023-08-08T02:39:15;13.00;99.90
51853;DHT22;37894;53.172;6.598;2023-08-08T02:41:41;13.50;99.90
51853;DHT22;37894;53.172;6.598;2023-08-08T02:44:08;13.00;99.90
51853;DHT22;37894;53.172;6.598;2023-08-08T02:46:33;12.80;99.90
51853;DHT22;37894;53.172;6.598;2023-08-08T02:48:59;11.90;99.90
51853;DHT22;37894;53.172;6.598;2023-08-08T02:51:25;12.80;99.90
51853;DHT22;37894;53.172;6.598;2023-08-08T02:53:50;13.00;99.90
51853;DHT22;37894;53.172;6.598;2023-08-08T02:56:16;13.10;99.90
51853;DHT22;37894;53.172;6.598;2023-08-08T02:58:42;13.40;99.90
51853;DHT22;37894;53.172;6.598;2023-08-08T03:01:07;13.10;99.90
51853;DHT22;37894;53.172;6.598;2023-08-08T03:03:33;12.90;99.90
51853;DHT22;37894;53.172;6.598;2023-08-08T03:06:01;12.90;99.90
51853;DHT22;37894;53.172;6.598;2023-08-08T03:08:27;12.90;99.90
51853;DHT22;37894;53.172;6.598;2023-08-08T03:10:53;13.20;99.90
51853;DHT22;37894;53.172;6.598;2023-08-08T03:13:19;14.00;99.90
51853;DHT22;37894;53.172;6.598;2023-08-08T03:15:45;13.30;99.90
51853;DHT22;37894;53.172;6.598;2023-08-08T03:18:11;13.10;99.90
51853;DHT22;37894;53.172;6.598;2023-08-08T03:20:36;13.00;99.90
51853;DHT22;37894;53.172;6.598;2023-08-08T03:23:02;13.00;99.90
51853;DHT22;37894;53.172;6.598;2023-08-08T03:25:28;13.40;99.90
51853;DHT22;37894;53.172;6.598;2023-08-08T03:27:54;12.50;99.90
51853;DHT22;37894;53.172;6.598;2023-08-08T03:30:19;13.00;99.90
51853;DHT22;37894;53.172;6.598;2023-08-08T03:32:45;12.90;99.90
51853;DHT22;37894;53.172;6.598;2023-08-08T03:35:11;12.80;99.90
51853;DHT22;37894;53.172;6.598;2023-08-08T03:40:03;12.80;99.90
51853;DHT22;37894;53.172;6.598;2023-08-08T03:42:29;13.80;99.90
51853;DHT22;37894;53.172;6.598;2023-08-08T03:44:55;12.80;99.90
51853;DHT22;37894;53.172;6.598;2023-08-08T03:47:20;12.80;99.90
51853;DHT22;37894;53.172;6.598;2023-08-08T03:52:13;12.60;99.90
51853;DHT22;37894;53.172;6.598;2023-08-08T03:54:39;12.70;99.90
51853;DHT22;37894;53.172;6.598;2023-08-08T03:57:05;12.50;99.90
51853;DHT22;37894;53.172;6.598;2023-08-08T03:59:31;12.80;99.90
51853;DHT22;37894;53.172;6.598;2023-08-08T04:01:56;12.60;99.90
51853;DHT22;37894;53.172;6.598;2023-08-08T04:04:22;13.00;99.90
51853;DHT22;37894;53.172;6.598;2023-08-08T04:06:48;12.70;99.90
51853;DHT22;37894;53.172;6.598;2023-08-08T04:09:13;12.80;99.90
51853;DHT22;37894;53.172;6.598;2023-08-08T04:11:39;12.50;99.90
51853;DHT22;37894;53.172;6.598;2023-08-08T04:14:05;12.30;99.90
51853;DHT22;37894;53.172;6.598;2023-08-08T04:16:30;12.30;99.90
51853;DHT22;37894;53.172;6.598;2023-08-08T04:18:56;12.70;99.90
51853;DHT22;37894;53.172;6.598;2023-08-08T04:23:49;12.50;99.90
51853;DHT22;37894;53.172;6.598;2023-08-08T04:26:14;12.60;99.90
51853;DHT22;37894;53.172;6.598;2023-08-08T04:28:40;12.60;99.90
51853;DHT22;37894;53.172;6.598;2023-08-08T04:31:06;12.80;99.90
51853;DHT22;37894;53.172;6.598;2023-08-08T04:33:31;12.30;99.90
51853;DHT22;37894;53.172;6.598;2023-08-08T04:35:57;12.30;99.90
51853;DHT22;37894;53.172;6.598;2023-08-08T04:38:23;13.40;99.90
51853;DHT22;37894;53.172;6.598;2023-08-08T04:43:14;12.50;99.90
51853;DHT22;37894;53.172;6.598;2023-08-08T04:45:40;12.80;99.90
51853;DHT22;37894;53.172;6.598;2023-08-08T04:48:06;12.90;99.90
51853;DHT22;37894;53.172;6.598;2023-08-08T04:50:32;12.80;99.90
51853;DHT22;37894;53.172;6.598;2023-08-08T04:52:57;12.60;99.90
51853;DHT22;37894;53.172;6.598;2023-08-08T04:55:23;13.20;99.90
51853;DHT22;37894;53.172;6.598;2023-08-08T04:57:49;13.10;99.90
51853;DHT22;37894;53.172;6.598;2023-08-08T05:00:14;13.30;99.90
51853;DHT22;37894;53.172;6.598;2023-08-08T05:02:40;13.20;99.90
51853;DHT22;37894;53.172;6.598;2023-08-08T05:05:07;13.90;99.90
51853;DHT22;37894;53.172;6.598;2023-08-08T05:07:32;13.20;99.90
51853;DHT22;37894;53.172;6.598;2023-08-08T05:10:01;13.90;99.90
51853;DHT22;37894;53.172;6.598;2023-08-08T05:12:28;14.20;99.90
51853;DHT22;37894;53.172;6.598;2023-08-08T05:14:53;13.40;99.90
51853;DHT22;37894;53.172;6.598;2023-08-08T05:17:19;13.60;99.90
51853;DHT22;37894;53.172;6.598;2023-08-08T05:19:45;12.70;99.90
51853;DHT22;37894;53.172;6.598;2023-08-08T05:22:10;13.70;99.90
51853;DHT22;37894;53.172;6.598;2023-08-08T05:24:36;13.50;99.90
51853;DHT22;37894;53.172;6.598;2023-08-08T05:27:02;13.60;99.90
51853;DHT22;37894;53.172;6.598;2023-08-08T05:29:29;13.70;99.90
51853;DHT22;37894;53.172;6.598;2023-08-08T05:31:55;14.20;99.90
51853;DHT22;37894;53.172;6.598;2023-08-08T05:34:23;13.90;99.90
51853;DHT22;37894;53.172;6.598;2023-08-08T05:36:49;13.60;99.90
51853;DHT22;37894;53.172;6.598;2023-08-08T05:39:14;13.90;99.90
51853;DHT22;37894;53.172;6.598;2023-08-08T05:41:40;13.70;99.90
51853;DHT22;37894;53.172;6.598;2023-08-08T05:44:06;13.50;99.90
51853;DHT22;37894;53.172;6.598;2023-08-08T05:46:31;13.90;99.90
51853;DHT22;37894;53.172;6.598;2023-08-08T05:48:57;13.90;99.90
51853;DHT22;37894;53.172;6.598;2023-08-08T05:51:23;14.00;99.90
51853;DHT22;37894;53.172;6.598;2023-08-08T05:53:49;14.00;99.90
51853;DHT22;37894;53.172;6.598;2023-08-08T05:56:14;14.40;99.90
51853;DHT22;37894;53.172;6.598;2023-08-08T05:58:40;14.50;99.90
51853;DHT22;37894;53.172;6.598;2023-08-08T06:01:06;13.60;99.90
51853;DHT22;37894;53.172;6.598;2023-08-08T06:03:35;14.30;99.90
51853;DHT22;37894;53.172;6.598;2023-08-08T06:06:01;14.00;99.90
51853;DHT22;37894;53.172;6.598;2023-08-08T06:08:26;14.50;99.90
51853;DHT22;37894;53.172;6.598;2023-08-08T06:10:52;13.90;99.90
51853;DHT22;37894;53.172;6.598;2023-08-08T06:13:18;14.50;99.90
51853;DHT22;37894;53.172;6.598;2023-08-08T06:15:43;14.50;99.90
51853;DHT22;37894;53.172;6.598;2023-08-08T06:18:09;15.00;99.90
51853;DHT22;37894;53.172;6.598;2023-08-08T06:20:35;14.70;99.90
51853;DHT22;37894;53.172;6.598;2023-08-08T06:23:00;14.80;99.90
51853;DHT22;37894;53.172;6.598;2023-08-08T06:25:26;14.80;99.90
51853;DHT22;37894;53.172;6.598;2023-08-08T06:27:53;15.00;99.90
51853;DHT22;37894;53.172;6.598;2023-08-08T06:30:19;14.90;99.90
51853;DHT22;37894;53.172;6.598;2023-08-08T06:32:44;15.00;99.90
51853;DHT22;37894;53.172;6.598;2023-08-08T06:35:10;15.10;99.90
51853;DHT22;37894;53.172;6.598;2023-08-08T06:37:36;15.20;99.90
51853;DHT22;37894;53.172;6.598;2023-08-08T06:40:02;12.30;99.90
51853;DHT22;37894;53.172;6.598;2023-08-08T06:42:28;15.30;99.90
51853;DHT22;37894;53.172;6.598;2023-08-08T06:44:53;15.40;99.90
51853;DHT22;37894;53.172;6.598;2023-08-08T06:47:19;15.40;99.90
51853;DHT22;37894;53.172;6.598;2023-08-08T06:49:45;15.50;99.90
51853;DHT22;37894;53.172;6.598;2023-08-08T06:52:10;14.70;99.90
51853;DHT22;37894;53.172;6.598;2023-08-08T06:54:36;15.80;99.90
51853;DHT22;37894;53.172;6.598;2023-08-08T06:57:02;15.70;99.90
51853;DHT22;37894;53.172;6.598;2023-08-08T06:59:28;15.80;99.90
51853;DHT22;37894;53.172;6.598;2023-08-08T07:01:53;16.80;99.90
51853;DHT22;37894;53.172;6.598;2023-08-08T07:04:19;15.80;99.90
51853;DHT22;37894;53.172;6.598;2023-08-08T07:06:48;16.00;99.90
51853;DHT22;37894;53.172;6.598;2023-08-08T07:09:13;16.00;99.90
51853;DHT22;37894;53.172;6.598;2023-08-08T07:11:40;16.10;99.90
51853;DHT22;37894;53.172;6.598;2023-08-08T07:14:06;16.20;99.90
51853;DHT22;37894;53.172;6.598;2023-08-08T07:16:31;16.20;99.90
51853;DHT22;37894;53.172;6.598;2023-08-08T07:18:57;15.90;99.90
51853;DHT22;37894;53.172;6.598;2023-08-08T07:21:23;16.30;99.90
51853;DHT22;37894;53.172;6.598;2023-08-08T07:23:49;16.30;99.90
51853;DHT22;37894;53.172;6.598;2023-08-08T07:26:14;16.40;99.90
51853;DHT22;37894;53.172;6.598;2023-08-08T07:28:40;16.40;99.90
51853;DHT22;37894;53.172;6.598;2023-08-08T07:31:06;16.50;99.90
51853;DHT22;37894;53.172;6.598;2023-08-08T07:33:32;16.60;99.90
51853;DHT22;37894;53.172;6.598;2023-08-08T07:35:57;16.70;99.90
51853;DHT22;37894;53.172;6.598;2023-08-08T07:38:23;16.60;99.90
51853;DHT22;37894;53.172;6.598;2023-08-08T07:40:49;16.80;99.90
51853;DHT22;37894;53.172;6.598;2023-08-08T07:43:14;16.90;99.90
51853;DHT22;37894;53.172;6.598;2023-08-08T07:45:41;17.10;99.90
51853;DHT22;37894;53.172;6.598;2023-08-08T07:48:07;17.10;99.90
51853;DHT22;37894;53.172;6.598;2023-08-08T07:50:32;17.20;99.90
51853;DHT22;37894;53.172;6.598;2023-08-08T07:52:58;17.20;99.90
51853;DHT22;37894;53.172;6.598;2023-08-08T07:55:24;17.10;99.90
51853;DHT22;37894;53.172;6.598;2023-08-08T07:57:49;17.10;99.90
51853;DHT22;37894;53.172;6.598;2023-08-08T08:00:15;17.20;99.90
51853;DHT22;37894;53.172;6.598;2023-08-08T08:02:44;17.20;99.90
51853;DHT22;37894;53.172;6.598;2023-08-08T08:05:10;17.20;99.90
51853;DHT22;37894;53.172;6.598;2023-08-08T08:07:36;17.30;99.90
51853;DHT22;37894;53.172;6.598;2023-08-08T08:10:08;17.30;99.90
51853;DHT22;37894;53.172;6.598;2023-08-08T08:12:35;17.20;99.90
51853;DHT22;37894;53.172;6.598;2023-08-08T08:15:02;17.20;99.90
51853;DHT22;37894;53.172;6.598;2023-08-08T08:17:27;17.20;99.90
51853;DHT22;37894;53.172;6.598;2023-08-08T08:19:54;17.20;99.90
51853;DHT22;37894;53.172;6.598;2023-08-08T08:22:20;17.20;99.90
51853;DHT22;37894;53.172;6.598;2023-08-08T08:24:45;17.20;99.90
51853;DHT22;37894;53.172;6.598;2023-08-08T08:27:12;17.20;99.90
51853;DHT22;37894;53.172;6.598;2023-08-08T08:29:39;17.50;99.90
51853;DHT22;37894;53.172;6.598;2023-08-08T08:32:05;16.90;99.90
51853;DHT22;37894;53.172;6.598;2023-08-08T08:34:30;17.20;99.90
51853;DHT22;37894;53.172;6.598;2023-08-08T08:36:56;15.60;99.90
51853;DHT22;37894;53.172;6.598;2023-08-08T08:39:22;17.00;99.90
51853;DHT22;37894;53.172;6.598;2023-08-08T08:41:51;17.00;99.90
51853;DHT22;37894;53.172;6.598;2023-08-08T08:44:21;17.10;99.90
51853;DHT22;37894;53.172;6.598;2023-08-08T08:46:48;17.10;99.90
51853;DHT22;37894;53.172;6.598;2023-08-08T08:49:17;17.10;99.90
51853;DHT22;37894;53.172;6.598;2023-08-08T08:51:44;17.00;99.90
51853;DHT22;37894;53.172;6.598;2023-08-08T08:54:10;17.20;99.90
51853;DHT22;37894;53.172;6.598;2023-08-08T08:56:37;17.30;99.90
51853;DHT22;37894;53.172;6.598;2023-08-08T08:59:03;17.50;99.90
51853;DHT22;37894;53.172;6.598;2023-08-08T09:01:29;17.70;99.90
51853;DHT22;37894;53.172;6.598;2023-08-08T09:03:54;17.90;99.90
51853;DHT22;37894;53.172;6.598;2023-08-08T09:06:23;18.10;99.90
51853;DHT22;37894;53.172;6.598;2023-08-08T09:08:49;18.30;99.90
51853;DHT22;37894;53.172;6.598;2023-08-08T09:11:14;18.50;99.90
51853;DHT22;37894;53.172;6.598;2023-08-08T09:13:40;19.80;99.90
51853;DHT22;37894;53.172;6.598;2023-08-08T09:16:07;18.80;99.90
51853;DHT22;37894;53.172;6.598;2023-08-08T09:18:34;19.00;99.90
51853;DHT22;37894;53.172;6.598;2023-08-08T09:21:00;19.10;99.90
51853;DHT22;37894;53.172;6.598;2023-08-08T09:23:26;19.00;99.90
51853;DHT22;37894;53.172;6.598;2023-08-08T09:25:51;18.80;99.90
51853;DHT22;37894;53.172;6.598;2023-08-08T09:28:17;19.00;99.90
51853;DHT22;37894;53.172;6.598;2023-08-08T09:30:43;19.00;99.90
51853;DHT22;37894;53.172;6.598;2023-08-08T09:33:11;19.10;99.90
51853;DHT22;37894;53.172;6.598;2023-08-08T09:35:38;19.20;99.90
51853;DHT22;37894;53.172;6.598;2023-08-08T09:38:04;19.10;99.90
51853;DHT22;37894;53.172;6.598;2023-08-08T09:40:31;19.00;99.90
51853;DHT22;37894;53.172;6.598;2023-08-08T09:42:57;18.90;99.90
51853;DHT22;37894;53.172;6.598;2023-08-08T09:45:24;18.90;99.90
51853;DHT22;37894;53.172;6.598;2023-08-08T09:47:50;19.10;99.90
51853;DHT22;37894;53.172;6.598;2023-08-08T09:50:18;19.30;99.90
51853;DHT22;37894;53.172;6.598;2023-08-08T09:52:46;19.50;99.90
51853;DHT22;37894;53.172;6.598;2023-08-08T09:55:13;19.40;99.90
51853;DHT22;37894;53.172;6.598;2023-08-08T09:57:39;19.10;99.90
51853;DHT22;37894;53.172;6.598;2023-08-08T10:00:07;18.20;99.90
51853;DHT22;37894;53.172;6.598;2023-08-08T10:02:37;18.60;99.90
51853;DHT22;37894;53.172;6.598;2023-08-08T10:05:06;18.40;99.90
51853;DHT22;37894;53.172;6.598;2023-08-08T10:07:35;18.10;99.90
51853;DHT22;37894;53.172;6.598;2023-08-08T10:10:01;17.90;99.90
51853;DHT22;37894;53.172;6.598;2023-08-08T10:12:27;17.80;99.90
51853;DHT22;37894;53.172;6.598;2023-08-08T10:14:52;17.60;99.90
51853;DHT22;37894;53.172;6.598;2023-08-08T10:17:18;17.40;99.90
51853;DHT22;37894;53.172;6.598;2023-08-08T10:19:53;17.00;99.90
51853;DHT22;37894;53.172;6.598;2023-08-08T10:22:24;16.60;99.90
51853;DHT22;37894;53.172;6.598;2023-08-08T10:24:54;16.40;99.90
51853;DHT22;37894;53.172;6.598;2023-08-08T10:27:36;16.20;99.90
51853;DHT22;37894;53.172;6.598;2023-08-08T10:30:09;16.10;99.90
51853;DHT22;37894;53.172;6.598;2023-08-08T10:32:43;16.10;99.90
51853;DHT22;37894;53.172;6.598;2023-08-08T10:35:10;16.40;99.90
51853;DHT22;37894;53.172;6.598;2023-08-08T10:37:37;16.70;99.90
51853;DHT22;37894;53.172;6.598;2023-08-08T10:40:03;16.80;99.90
51853;DHT22;37894;53.172;6.598;2023-08-08T10:42:40;16.90;99.90
51853;DHT22;37894;53.172;6.598;2023-08-08T10:45:10;17.00;99.90
51853;DHT22;37894;53.172;6.598;2023-08-08T10:47:37;17.10;99.90
51853;DHT22;37894;53.172;6.598;2023-08-08T10:50:07;17.10;99.90
51853;DHT22;37894;53.172;6.598;2023-08-08T10:55:31;17.10;99.90
51853;DHT22;37894;53.172;6.598;2023-08-08T10:58:09;16.90;99.90
51853;DHT22;37894;53.172;6.598;2023-08-08T11:00:36;17.00;99.90
51853;DHT22;37894;53.172;6.598;2023-08-08T11:03:05;17.10;99.90
51853;DHT22;37894;53.172;6.598;2023-08-08T11:05:32;17.30;99.90
51853;DHT22;37894;53.172;6.598;2023-08-08T11:07:59;17.60;99.90
51853;DHT22;37894;53.172;6.598;2023-08-08T11:10:25;17.80;99.90
51853;DHT22;37894;53.172;6.598;2023-08-08T11:13:01;17.90;99.90
51853;DHT22;37894;53.172;6.598;2023-08-08T11:15:27;18.00;99.90
51853;DHT22;37894;53.172;6.598;2023-08-08T11:17:56;18.20;99.90
51853;DHT22;37894;53.172;6.598;2023-08-08T11:20:23;18.30;99.90
51853;DHT22;37894;53.172;6.598;2023-08-08T11:22:54;18.80;99.90
51853;DHT22;37894;53.172;6.598;2023-08-08T11:25:21;18.80;99.90
51853;DHT22;37894;53.172;6.598;2023-08-08T11:27:53;18.80;99.90
51853;DHT22;37894;53.172;6.598;2023-08-08T11:30:21;18.80;99.90
51853;DHT22;37894;53.172;6.598;2023-08-08T11:32:48;18.90;99.90
51853;DHT22;37894;53.172;6.598;2023-08-08T11:35:23;19.10;99.90
51853;DHT22;37894;53.172;6.598;2023-08-08T11:37:53;19.30;99.90
51853;DHT22;37894;53.172;6.598;2023-08-08T11:40:20;19.40;99.90
51853;DHT22;37894;53.172;6.598;2023-08-08T11:42:48;19.50;99.90
51853;DHT22;37894;53.172;6.598;2023-08-08T11:45:16;19.80;99.90
51853;DHT22;37894;53.172;6.598;2023-08-08T11:47:42;20.00;99.90
51853;DHT22;37894;53.172;6.598;2023-08-08T11:50:09;20.20;99.90
51853;DHT22;37894;53.172;6.598;2023-08-08T11:52:39;20.70;99.90
51853;DHT22;37894;53.172;6.598;2023-08-08T11:55:06;20.80;99.90
51853;DHT22;37894;53.172;6.598;2023-08-08T11:57:35;21.00;99.90
51853;DHT22;37894;53.172;6.598;2023-08-08T12:00:04;21.00;99.90
51853;DHT22;37894;53.172;6.598;2023-08-08T12:02:32;20.90;99.90
51853;DHT22;37894;53.172;6.598;2023-08-08T12:05:04;20.90;99.90
51853;DHT22;37894;53.172;6.598;2023-08-08T12:07:35;21.10;99.90
51853;DHT22;37894;53.172;6.598;2023-08-08T12:10:03;21.10;99.90
51853;DHT22;37894;53.172;6.598;2023-08-08T12:12:32;21.10;99.90
51853;DHT22;37894;53.172;6.598;2023-08-08T12:15:05;21.20;99.90
51853;DHT22;37894;53.172;6.598;2023-08-08T12:17:31;21.40;99.90
51853;DHT22;37894;53.172;6.598;2023-08-08T12:20:02;21.40;99.90
51853;DHT22;37894;53.172;6.598;2023-08-08T12:22:29;21.00;99.90
51853;DHT22;37894;53.172;6.598;2023-08-08T12:24:54;20.80;99.90
51853;DHT22;37894;53.172;6.598;2023-08-08T12:27:20;20.20;99.90
51853;DHT22;37894;53.172;6.598;2023-08-08T12:29:46;19.90;99.90
51853;DHT22;37894;53.172;6.598;2023-08-08T12:32:12;19.50;99.90
51853;DHT22;37894;53.172;6.598;2023-08-08T12:34:37;19.30;99.90
51853;DHT22;37894;53.172;6.598;2023-08-08T12:37:03;19.30;99.90
51853;DHT22;37894;53.172;6.598;2023-08-08T12:39:29;19.40;99.90
51853;DHT22;37894;53.172;6.598;2023-08-08T12:41:55;19.40;99.90
51853;DHT22;37894;53.172;6.598;2023-08-08T12:44:20;19.40;99.90
51853;DHT22;37894;53.172;6.598;2023-08-08T12:46:46;19.40;99.90
51853;DHT22;37894;53.172;6.598;2023-08-08T12:49:12;19.40;99.90
51853;DHT22;37894;53.172;6.598;2023-08-08T12:51:37;19.40;99.90
51853;DHT22;37894;53.172;6.598;2023-08-08T12:54:03;19.30;99.90
51853;DHT22;37894;53.172;6.598;2023-08-08T12:56:29;19.30;99.90
51853;DHT22;37894;53.172;6.598;2023-08-08T12:58:56;19.20;99.90
51853;DHT22;37894;53.172;6.598;2023-08-08T13:01:22;18.90;99.90
51853;DHT22;37894;53.172;6.598;2023-08-08T13:03:47;18.80;99.90
51853;DHT22;37894;53.172;6.598;2023-08-08T13:06:13;18.60;99.90
51853;DHT22;37894;53.172;6.598;2023-08-08T13:08:39;18.50;99.90
51853;DHT22;37894;53.172;6.598;2023-08-08T13:11:05;18.40;99.90
51853;DHT22;37894;53.172;6.598;2023-08-08T13:13:31;18.40;99.90
51853;DHT22;37894;53.172;6.598;2023-08-08T13:15:56;18.50;99.90
51853;DHT22;37894;53.172;6.598;2023-08-08T13:18:22;18.60;99.90
51853;DHT22;37894;53.172;6.598;2023-08-08T13:20:48;18.90;99.90
51853;DHT22;37894;53.172;6.598;2023-08-08T13:23:14;19.20;99.90
51853;DHT22;37894;53.172;6.598;2023-08-08T13:25:40;19.50;99.90
51853;DHT22;37894;53.172;6.598;2023-08-08T13:28:06;20.20;99.90
51853;DHT22;37894;53.172;6.598;2023-08-08T13:30:32;20.00;99.90
51853;DHT22;37894;53.172;6.598;2023-08-08T13:32:59;20.20;99.90
51853;DHT22;37894;53.172;6.598;2023-08-08T13:35:25;20.20;99.90
51853;DHT22;37894;53.172;6.598;2023-08-08T13:37:51;20.00;99.90
51853;DHT22;37894;53.172;6.598;2023-08-08T13:40:18;20.00;99.90
51853;DHT22;37894;53.172;6.598;2023-08-08T13:42:44;20.10;99.90
51853;DHT22;37894;53.172;6.598;2023-08-08T13:45:14;20.20;99.90
51853;DHT22;37894;53.172;6.598;2023-08-08T13:47:39;20.10;99.90
51853;DHT22;37894;53.172;6.598;2023-08-08T13:50:06;19.90;99.90
51853;DHT22;37894;53.172;6.598;2023-08-08T13:52:32;20.10;99.90
51853;DHT22;37894;53.172;6.598;2023-08-08T13:54:59;20.20;99.90
51853;DHT22;37894;53.172;6.598;2023-08-08T13:57:24;20.60;99.90
51853;DHT22;37894;53.172;6.598;2023-08-08T13:59:50;21.00;99.90
51853;DHT22;37894;53.172;6.598;2023-08-08T14:02:16;21.20;99.90
51853;DHT22;37894;53.172;6.598;2023-08-08T14:04:44;21.70;99.90
51853;DHT22;37894;53.172;6.598;2023-08-08T14:07:10;21.90;99.90
51853;DHT22;37894;53.172;6.598;2023-08-08T14:09:36;21.80;99.90
51853;DHT22;37894;53.172;6.598;2023-08-08T14:12:02;21.70;99.90
51853;DHT22;37894;53.172;6.598;2023-08-08T14:14:28;21.60;99.90
51853;DHT22;37894;53.172;6.598;2023-08-08T14:16:54;21.20;99.90
51853;DHT22;37894;53.172;6.598;2023-08-08T14:19:20;20.60;99.90
51853;DHT22;37894;53.172;6.598;2023-08-08T14:21:46;20.30;99.90
51853;DHT22;37894;53.172;6.598;2023-08-08T14:24:11;20.10;99.90
51853;DHT22;37894;53.172;6.598;2023-08-08T14:26:37;20.00;99.90
51853;DHT22;37894;53.172;6.598;2023-08-08T14:29:03;19.90;99.90
51853;DHT22;37894;53.172;6.598;2023-08-08T14:31:30;19.80;99.90
51853;DHT22;37894;53.172;6.598;2023-08-08T14:33:55;19.80;99.90
51853;DHT22;37894;53.172;6.598;2023-08-08T14:36:21;19.60;99.90
51853;DHT22;37894;53.172;6.598;2023-08-08T14:38:47;19.40;99.90
51853;DHT22;37894;53.172;6.598;2023-08-08T14:41:13;19.20;99.90
51853;DHT22;37894;53.172;6.598;2023-08-08T14:43:38;19.10;99.90
51853;DHT22;37894;53.172;6.598;2023-08-08T14:46:04;19.00;99.90
51853;DHT22;37894;53.172;6.598;2023-08-08T14:48:30;18.90;99.90
51853;DHT22;37894;53.172;6.598;2023-08-08T14:50:55;18.90;99.90
51853;DHT22;37894;53.172;6.598;2023-08-08T14:53:21;18.80;99.90
51853;DHT22;37894;53.172;6.598;2023-08-08T14:55:47;18.80;99.90
51853;DHT22;37894;53.172;6.598;2023-08-08T14:58:14;18.70;99.90
51853;DHT22;37894;53.172;6.598;2023-08-08T15:00:40;18.60;99.90
51853;DHT22;37894;53.172;6.598;2023-08-08T15:03:06;18.70;99.90
51853;DHT22;37894;53.172;6.598;2023-08-08T15:05:32;18.00;99.90
51853;DHT22;37894;53.172;6.598;2023-08-08T15:07:58;18.70;99.90
51853;DHT22;37894;53.172;6.598;2023-08-08T15:10:24;18.30;99.90
51853;DHT22;37894;53.172;6.598;2023-08-08T15:12:49;18.40;99.90
51853;DHT22;37894;53.172;6.598;2023-08-08T15:15:15;18.40;99.90
51853;DHT22;37894;53.172;6.598;2023-08-08T15:17:42;18.40;99.90
51853;DHT22;37894;53.172;6.598;2023-08-08T15:20:09;18.40;99.90
51853;DHT22;37894;53.172;6.598;2023-08-08T15:22:36;18.50;99.90
51853;DHT22;37894;53.172;6.598;2023-08-08T15:25:03;18.40;99.90
51853;DHT22;37894;53.172;6.598;2023-08-08T15:27:29;18.40;99.90
51853;DHT22;37894;53.172;6.598;2023-08-08T15:29:55;18.40;99.90
51853;DHT22;37894;53.172;6.598;2023-08-08T15:32:21;18.20;99.90
51853;DHT22;37894;53.172;6.598;2023-08-08T15:34:47;18.30;99.90
51853;DHT22;37894;53.172;6.598;2023-08-08T15:37:12;18.20;99.90
51853;DHT22;37894;53.172;6.598;2023-08-08T15:39:39;18.20;99.90
51853;DHT22;37894;53.172;6.598;2023-08-08T15:42:05;18.10;99.90
51853;DHT22;37894;53.172;6.598;2023-08-08T15:44:31;17.80;99.90
51853;DHT22;37894;53.172;6.598;2023-08-08T15:46:57;17.90;99.90
51853;DHT22;37894;53.172;6.598;2023-08-08T15:49:23;19.00;99.90
51853;DHT22;37894;53.172;6.598;2023-08-08T15:51:49;17.80;99.90